sensor_id;sensor_type;location;lat;lon;timestamp;P1;durP1;ratioP1;P2;durP2;ratioP2
39898;SDS011;25571;47.876;10.642;2024-03-23T00:52:46;3.42;;;2.72;;
39898;SDS011;25571;47.876;10.642;2024-03-23T00:55:12;3.22;;;2.20;;
39898;SDS011;25571;47.876;10.642;2024-03-23T00:57:39;3.40;;;2.63;;
39898;SDS011;25571;47.876;10.642;2024-03-23T01:00:04;2.90;;;2.60;;
39898;SDS011;25571;47.876;10.642;2024-03-23T01:02:31;3.97;;;2.58;;
39898;SDS011;25571;47.876;10.642;2024-03-23T01:04:57;2.72;;;2.28;;
39898;SDS011;25571;47.876;10.642;2024-03-23T01:07:23;5.53;;;2.20;;
39898;SDS011;25571;47.876;10.642;2024-03-23T01:09:48;3.70;;;2.38;;
39898;SDS011;25571;47.876;10.642;2024-03-23T01:12:14;2.53;;;2.22;;
39898;SDS011;25571;47.876;10.642;2024-03-23T01:14:39;4.18;;;2.50;;
39898;SDS011;25571;47.876;10.642;2024-03-23T01:17:05;2.67;;;2.30;;
39898;SDS011;25571;47.876;10.642;2024-03-23T01:19:31;4.47;;;2.85;;
39898;SDS011;25571;47.876;10.642;2024-03-23T01:21:56;3.22;;;2.13;;
39898;SDS011;25571;47.876;10.642;2024-03-23T01:24:22;3.55;;;2.40;;
39898;SDS011;25571;47.876;10.642;2024-03-23T01:26:47;3.15;;;2.45;;
39898;SDS011;25571;47.876;10.642;2024-03-23T01:29:13;3.50;;;2.22;;
39898;SDS011;25571;47.876;10.642;2024-03-23T01:31:38;2.10;;;1.90;;
39898;SDS011;25571;47.876;10.642;2024-03-23T01:34:04;2.92;;;1.90;;
39898;SDS011;25571;47.876;10.642;2024-03-23T01:36:29;3.03;;;2.10;;
39898;SDS011;25571;47.876;10.642;2024-03-23T01:38:55;2.35;;;1.98;;
39898;SDS011;25571;47.876;10.642;2024-03-23T01:41:20;3.22;;;2.03;;
39898;SDS011;25571;47.876;10.642;2024-03-23T01:43:46;1.80;;;1.70;;
39898;SDS011;25571;47.876;10.642;2024-03-23T01:46:12;2.85;;;2.00;;
39898;SDS011;25571;47.876;10.642;2024-03-23T01:48:38;3.72;;;1.80;;
39898;SDS011;25571;47.876;10.642;2024-03-23T01:51:03;2.72;;;1.77;;
39898;SDS011;25571;47.876;10.642;2024-03-23T01:53:30;3.47;;;1.70;;
39898;SDS011;25571;47.876;10.642;2024-03-23T01:55:56;2.83;;;2.22;;
39898;SDS011;25571;47.876;10.642;2024-03-23T01:58:22;2.38;;;2.17;;
39898;SDS011;25571;47.876;10.642;2024-03-23T02:00:47;2.70;;;2.13;;
39898;SDS011;25571;47.876;10.642;2024-03-23T02:03:25;2.80;;;2.17;;
39898;SDS011;25571;47.876;10.642;2024-03-23T02:05:52;3.15;;;2.05;;
39898;SDS011;25571;47.876;10.642;2024-03-23T02:08:20;3.47;;;2.05;;
39898;SDS011;25571;47.876;10.642;2024-03-23T02:10:46;2.35;;;1.90;;
39898;SDS011;25571;47.876;10.642;2024-03-23T02:13:14;5.68;;;2.22;;
39898;SDS011;25571;47.876;10.642;2024-03-23T02:15:39;2.15;;;1.95;;
39898;SDS011;25571;47.876;10.642;2024-03-23T02:18:06;3.67;;;1.77;;
39898;SDS011;25571;47.876;10.642;2024-03-23T02:20:32;2.13;;;1.63;;
39898;SDS011;25571;47.876;10.642;2024-03-23T02:22:58;2.63;;;1.85;;
39898;SDS011;25571;47.876;10.642;2024-03-23T02:25:23;2.42;;;1.80;;
39898;SDS011;25571;47.876;10.642;2024-03-23T02:27:49;2.75;;;2.15;;
39898;SDS011;25571;47.876;10.642;2024-03-23T02:30:15;2.00;;;1.80;;
39898;SDS011;25571;47.876;10.642;2024-03-23T02:32:40;3.92;;;1.88;;
39898;SDS011;25571;47.876;10.642;2024-03-23T02:35:06;3.38;;;2.03;;
39898;SDS011;25571;47.876;10.642;2024-03-23T02:37:31;2.25;;;2.05;;
39898;SDS011;25571;47.876;10.642;2024-03-23T02:39:57;3.60;;;2.00;;
39898;SDS011;25571;47.876;10.642;2024-03-23T02:42:23;2.85;;;1.75;;
39898;SDS011;25571;47.876;10.642;2024-03-23T02:44:49;2.72;;;2.00;;
39898;SDS011;25571;47.876;10.642;2024-03-23T02:47:14;2.05;;;1.85;;
39898;SDS011;25571;47.876;10.642;2024-03-23T02:49:40;1.95;;;1.63;;
39898;SDS011;25571;47.876;10.642;2024-03-23T02:52:06;2.53;;;1.80;;
39898;SDS011;25571;47.876;10.642;2024-03-23T02:54:31;2.10;;;1.90;;
39898;SDS011;25571;47.876;10.642;2024-03-23T02:56:57;3.03;;;1.63;;
39898;SDS011;25571;47.876;10.642;2024-03-23T02:59:22;2.22;;;1.63;;
39898;SDS011;25571;47.876;10.642;2024-03-23T03:01:48;2.03;;;1.63;;
39898;SDS011;25571;47.876;10.642;2024-03-23T03:04:13;4.03;;;1.75;;
39898;SDS011;25571;47.876;10.642;2024-03-23T03:06:39;1.92;;;1.55;;
39898;SDS011;25571;47.876;10.642;2024-03-23T03:09:05;3.45;;;1.75;;
39898;SDS011;25571;47.876;10.642;2024-03-23T03:11:31;2.05;;;1.85;;
39898;SDS011;25571;47.876;10.642;2024-03-23T03:13:57;1.98;;;1.63;;
39898;SDS011;25571;47.876;10.642;2024-03-23T03:16:25;1.67;;;1.40;;
39898;SDS011;25571;47.876;10.642;2024-03-23T03:18:50;2.22;;;1.55;;
39898;SDS011;25571;47.876;10.642;2024-03-23T03:21:17;2.13;;;1.50;;
39898;SDS011;25571;47.876;10.642;2024-03-23T03:23:44;2.08;;;1.50;;
39898;SDS011;25571;47.876;10.642;2024-03-23T03:26:09;4.13;;;2.05;;
39898;SDS011;25571;47.876;10.642;2024-03-23T03:28:35;1.95;;;1.70;;
39898;SDS011;25571;47.876;10.642;2024-03-23T03:31:00;1.98;;;1.30;;
39898;SDS011;25571;47.876;10.642;2024-03-23T03:33:26;1.60;;;1.48;;
39898;SDS011;25571;47.876;10.642;2024-03-23T03:35:52;4.10;;;1.80;;
39898;SDS011;25571;47.876;10.642;2024-03-23T03:38:18;1.48;;;1.33;;
39898;SDS011;25571;47.876;10.642;2024-03-23T03:40:44;1.60;;;1.35;;
39898;SDS011;25571;47.876;10.642;2024-03-23T03:43:10;2.30;;;1.25;;
39898;SDS011;25571;47.876;10.642;2024-03-23T03:45:36;1.80;;;1.55;;
39898;SDS011;25571;47.876;10.642;2024-03-23T03:48:01;2.55;;;1.40;;
39898;SDS011;25571;47.876;10.642;2024-03-23T03:50:27;2.08;;;1.45;;
39898;SDS011;25571;47.876;10.642;2024-03-23T03:52:53;1.50;;;1.40;;
39898;SDS011;25571;47.876;10.642;2024-03-23T03:55:18;1.77;;;1.48;;
39898;SDS011;25571;47.876;10.642;2024-03-23T03:57:44;1.30;;;1.20;;
39898;SDS011;25571;47.876;10.642;2024-03-23T04:00:10;1.73;;;1.35;;
39898;SDS011;25571;47.876;10.642;2024-03-23T04:02:36;2.05;;;1.35;;
39898;SDS011;25571;47.876;10.642;2024-03-23T04:05:03;1.58;;;1.20;;
39898;SDS011;25571;47.876;10.642;2024-03-23T04:07:28;2.28;;;1.40;;
39898;SDS011;25571;47.876;10.642;2024-03-23T04:09:54;2.47;;;1.20;;
39898;SDS011;25571;47.876;10.642;2024-03-23T04:12:20;1.75;;;1.17;;
39898;SDS011;25571;47.876;10.642;2024-03-23T04:14:45;1.08;;;0.98;;
39898;SDS011;25571;47.876;10.642;2024-03-23T04:17:11;1.20;;;1.08;;
39898;SDS011;25571;47.876;10.642;2024-03-23T04:19:36;1.35;;;1.17;;
39898;SDS011;25571;47.876;10.642;2024-03-23T04:22:02;1.08;;;0.98;;
39898;SDS011;25571;47.876;10.642;2024-03-23T04:24:28;1.30;;;1.00;;
39898;SDS011;25571;47.876;10.642;2024-03-23T04:26:54;2.10;;;1.27;;
39898;SDS011;25571;47.876;10.642;2024-03-23T04:29:20;1.70;;;0.90;;
39898;SDS011;25571;47.876;10.642;2024-03-23T04:31:45;1.27;;;1.17;;
39898;SDS011;25571;47.876;10.642;2024-03-23T04:34:11;1.98;;;1.40;;
39898;SDS011;25571;47.876;10.642;2024-03-23T04:36:36;1.70;;;1.10;;
39898;SDS011;25571;47.876;10.642;2024-03-23T04:39:02;1.30;;;0.88;;
39898;SDS011;25571;47.876;10.642;2024-03-23T04:41:27;0.85;;;0.85;;
39898;SDS011;25571;47.876;10.642;2024-03-23T04:43:53;2.00;;;1.02;;
39898;SDS011;25571;47.876;10.642;2024-03-23T04:46:19;2.47;;;1.10;;
39898;SDS011;25571;47.876;10.642;2024-03-23T04:48:45;1.30;;;1.00;;
39898;SDS011;25571;47.876;10.642;2024-03-23T04:51:11;2.65;;;1.35;;
39898;SDS011;25571;47.876;10.642;2024-03-23T04:53:48;1.98;;;1.35;;
39898;SDS011;25571;47.876;10.642;2024-03-23T04:56:17;1.58;;;1.20;;
39898;SDS011;25571;47.876;10.642;2024-03-23T05:01:09;2.20;;;1.15;;
39898;SDS011;25571;47.876;10.642;2024-03-23T05:03:35;0.98;;;0.88;;
39898;SDS011;25571;47.876;10.642;2024-03-23T05:06:01;1.98;;;0.90;;
39898;SDS011;25571;47.876;10.642;2024-03-23T05:08:26;1.38;;;1.27;;
39898;SDS011;25571;47.876;10.642;2024-03-23T05:10:52;1.70;;;0.90;;
39898;SDS011;25571;47.876;10.642;2024-03-23T05:13:18;1.40;;;1.02;;
39898;SDS011;25571;47.876;10.642;2024-03-23T05:15:43;0.80;;;0.80;;
39898;SDS011;25571;47.876;10.642;2024-03-23T05:18:09;1.55;;;1.00;;
39898;SDS011;25571;47.876;10.642;2024-03-23T05:20:35;1.92;;;0.77;;
39898;SDS011;25571;47.876;10.642;2024-03-23T05:23:00;1.98;;;1.00;;
39898;SDS011;25571;47.876;10.642;2024-03-23T05:25:26;1.77;;;1.23;;
39898;SDS011;25571;47.876;10.642;2024-03-23T05:27:51;1.05;;;0.82;;
39898;SDS011;25571;47.876;10.642;2024-03-23T05:30:17;1.48;;;0.90;;
39898;SDS011;25571;47.876;10.642;2024-03-23T05:32:43;1.10;;;0.90;;
39898;SDS011;25571;47.876;10.642;2024-03-23T05:35:09;0.70;;;0.70;;
39898;SDS011;25571;47.876;10.642;2024-03-23T05:37:35;1.92;;;0.90;;
39898;SDS011;25571;47.876;10.642;2024-03-23T05:40:02;1.05;;;0.80;;
39898;SDS011;25571;47.876;10.642;2024-03-23T05:42:28;2.22;;;1.00;;
39898;SDS011;25571;47.876;10.642;2024-03-23T05:44:54;1.50;;;1.00;;
39898;SDS011;25571;47.876;10.642;2024-03-23T05:47:20;1.02;;;0.88;;
39898;SDS011;25571;47.876;10.642;2024-03-23T05:49:46;1.48;;;1.00;;
39898;SDS011;25571;47.876;10.642;2024-03-23T05:52:11;1.55;;;1.33;;
39898;SDS011;25571;47.876;10.642;2024-03-23T05:54:38;1.67;;;0.90;;
39898;SDS011;25571;47.876;10.642;2024-03-23T05:57:03;2.10;;;0.70;;
39898;SDS011;25571;47.876;10.642;2024-03-23T05:59:32;1.25;;;0.90;;
39898;SDS011;25571;47.876;10.642;2024-03-23T06:01:58;1.30;;;0.90;;
39898;SDS011;25571;47.876;10.642;2024-03-23T06:04:23;1.15;;;1.05;;
39898;SDS011;25571;47.876;10.642;2024-03-23T06:06:49;1.08;;;0.90;;
39898;SDS011;25571;47.876;10.642;2024-03-23T06:09:17;1.33;;;1.10;;
39898;SDS011;25571;47.876;10.642;2024-03-23T06:11:42;2.28;;;1.17;;
39898;SDS011;25571;47.876;10.642;2024-03-23T06:14:08;1.75;;;1.20;;
39898;SDS011;25571;47.876;10.642;2024-03-23T06:16:33;0.80;;;0.80;;
39898;SDS011;25571;47.876;10.642;2024-03-23T06:18:59;1.30;;;1.20;;
39898;SDS011;25571;47.876;10.642;2024-03-23T06:21:25;2.38;;;1.40;;
39898;SDS011;25571;47.876;10.642;2024-03-23T06:23:53;3.03;;;1.92;;
39898;SDS011;25571;47.876;10.642;2024-03-23T06:26:19;2.85;;;2.08;;
39898;SDS011;25571;47.876;10.642;2024-03-23T06:28:46;4.15;;;3.30;;
39898;SDS011;25571;47.876;10.642;2024-03-23T06:31:12;2.10;;;1.90;;
39898;SDS011;25571;47.876;10.642;2024-03-23T06:33:37;3.20;;;2.47;;
39898;SDS011;25571;47.876;10.642;2024-03-23T06:36:04;5.00;;;4.32;;
39898;SDS011;25571;47.876;10.642;2024-03-23T06:38:30;3.22;;;2.28;;
39898;SDS011;25571;47.876;10.642;2024-03-23T06:40:56;3.08;;;1.80;;
39898;SDS011;25571;47.876;10.642;2024-03-23T06:43:21;2.03;;;1.80;;
39898;SDS011;25571;47.876;10.642;2024-03-23T06:45:53;3.05;;;2.58;;
39898;SDS011;25571;47.876;10.642;2024-03-23T06:48:19;5.45;;;3.03;;
39898;SDS011;25571;47.876;10.642;2024-03-23T06:50:45;2.47;;;2.10;;
39898;SDS011;25571;47.876;10.642;2024-03-23T06:53:12;2.83;;;1.80;;
39898;SDS011;25571;47.876;10.642;2024-03-23T06:55:38;2.47;;;1.40;;
39898;SDS011;25571;47.876;10.642;2024-03-23T06:58:04;2.22;;;1.63;;
39898;SDS011;25571;47.876;10.642;2024-03-23T07:00:29;1.38;;;1.13;;
39898;SDS011;25571;47.876;10.642;2024-03-23T07:02:55;1.73;;;1.23;;
39898;SDS011;25571;47.876;10.642;2024-03-23T07:05:21;2.10;;;1.40;;
39898;SDS011;25571;47.876;10.642;2024-03-23T07:07:46;2.70;;;1.80;;
39898;SDS011;25571;47.876;10.642;2024-03-23T07:10:12;1.58;;;1.40;;
39898;SDS011;25571;47.876;10.642;2024-03-23T07:12:37;2.25;;;1.60;;
39898;SDS011;25571;47.876;10.642;2024-03-23T07:15:03;3.30;;;1.83;;
39898;SDS011;25571;47.876;10.642;2024-03-23T07:17:29;3.20;;;1.77;;
39898;SDS011;25571;47.876;10.642;2024-03-23T07:19:55;2.53;;;1.60;;
39898;SDS011;25571;47.876;10.642;2024-03-23T07:22:20;2.22;;;1.92;;
39898;SDS011;25571;47.876;10.642;2024-03-23T07:24:46;3.30;;;1.75;;
39898;SDS011;25571;47.876;10.642;2024-03-23T07:27:12;3.03;;;1.80;;
39898;SDS011;25571;47.876;10.642;2024-03-23T07:29:37;1.92;;;1.67;;
39898;SDS011;25571;47.876;10.642;2024-03-23T07:32:03;2.20;;;1.40;;
39898;SDS011;25571;47.876;10.642;2024-03-23T07:34:29;1.65;;;1.55;;
39898;SDS011;25571;47.876;10.642;2024-03-23T07:36:54;2.75;;;1.40;;
39898;SDS011;25571;47.876;10.642;2024-03-23T07:39:20;1.80;;;1.45;;
39898;SDS011;25571;47.876;10.642;2024-03-23T07:41:46;1.70;;;1.13;;
39898;SDS011;25571;47.876;10.642;2024-03-23T07:44:12;1.58;;;1.23;;
39898;SDS011;25571;47.876;10.642;2024-03-23T07:46:37;1.80;;;1.50;;
39898;SDS011;25571;47.876;10.642;2024-03-23T07:49:06;2.00;;;1.33;;
39898;SDS011;25571;47.876;10.642;2024-03-23T07:51:31;1.38;;;1.23;;
39898;SDS011;25571;47.876;10.642;2024-03-23T07:53:58;2.35;;;1.35;;
39898;SDS011;25571;47.876;10.642;2024-03-23T07:56:24;1.50;;;1.30;;
39898;SDS011;25571;47.876;10.642;2024-03-23T07:58:49;2.00;;;1.25;;
39898;SDS011;25571;47.876;10.642;2024-03-23T08:01:15;1.30;;;1.17;;
39898;SDS011;25571;47.876;10.642;2024-03-23T08:03:42;1.42;;;1.30;;
39898;SDS011;25571;47.876;10.642;2024-03-23T08:08:34;1.80;;;1.30;;
39898;SDS011;25571;47.876;10.642;2024-03-23T08:11:00;2.53;;;1.50;;
39898;SDS011;25571;47.876;10.642;2024-03-23T08:13:26;1.30;;;1.17;;
39898;SDS011;25571;47.876;10.642;2024-03-23T08:15:51;1.92;;;1.30;;
39898;SDS011;25571;47.876;10.642;2024-03-23T08:18:17;1.40;;;1.00;;
39898;SDS011;25571;47.876;10.642;2024-03-23T08:20:42;2.75;;;1.30;;
39898;SDS011;25571;47.876;10.642;2024-03-23T08:23:08;3.55;;;1.27;;
39898;SDS011;25571;47.876;10.642;2024-03-23T08:25:34;3.08;;;1.15;;
39898;SDS011;25571;47.876;10.642;2024-03-23T08:28:00;1.70;;;1.00;;
39898;SDS011;25571;47.876;10.642;2024-03-23T08:30:26;1.70;;;1.23;;
39898;SDS011;25571;47.876;10.642;2024-03-23T08:32:53;1.42;;;1.20;;
39898;SDS011;25571;47.876;10.642;2024-03-23T08:35:18;2.20;;;1.55;;
39898;SDS011;25571;47.876;10.642;2024-03-23T08:37:44;2.88;;;1.50;;
39898;SDS011;25571;47.876;10.642;2024-03-23T08:40:09;1.73;;;1.63;;
39898;SDS011;25571;47.876;10.642;2024-03-23T08:42:35;2.15;;;1.50;;
39898;SDS011;25571;47.876;10.642;2024-03-23T08:45:01;1.33;;;1.23;;
39898;SDS011;25571;47.876;10.642;2024-03-23T08:47:27;2.05;;;1.50;;
39898;SDS011;25571;47.876;10.642;2024-03-23T08:49:53;2.20;;;1.52;;
39898;SDS011;25571;47.876;10.642;2024-03-23T08:52:18;1.38;;;1.23;;
39898;SDS011;25571;47.876;10.642;2024-03-23T08:54:44;1.65;;;1.55;;
39898;SDS011;25571;47.876;10.642;2024-03-23T08:57:09;1.95;;;1.30;;
39898;SDS011;25571;47.876;10.642;2024-03-23T08:59:35;3.40;;;1.70;;
39898;SDS011;25571;47.876;10.642;2024-03-23T09:02:02;1.52;;;1.30;;
39898;SDS011;25571;47.876;10.642;2024-03-23T09:04:28;1.55;;;1.40;;
39898;SDS011;25571;47.876;10.642;2024-03-23T09:06:53;2.47;;;1.40;;
39898;SDS011;25571;47.876;10.642;2024-03-23T09:09:19;1.52;;;1.13;;
39898;SDS011;25571;47.876;10.642;2024-03-23T09:11:45;1.85;;;1.48;;
39898;SDS011;25571;47.876;10.642;2024-03-23T09:14:10;1.15;;;1.05;;
39898;SDS011;25571;47.876;10.642;2024-03-23T09:16:36;1.58;;;1.20;;
39898;SDS011;25571;47.876;10.642;2024-03-23T09:19:01;1.20;;;1.10;;
39898;SDS011;25571;47.876;10.642;2024-03-23T09:21:27;2.30;;;1.60;;
39898;SDS011;25571;47.876;10.642;2024-03-23T09:23:52;1.63;;;1.40;;
39898;SDS011;25571;47.876;10.642;2024-03-23T09:26:18;1.02;;;0.95;;
39898;SDS011;25571;47.876;10.642;2024-03-23T09:28:43;0.85;;;0.80;;
39898;SDS011;25571;47.876;10.642;2024-03-23T09:31:09;1.25;;;0.80;;
39898;SDS011;25571;47.876;10.642;2024-03-23T09:33:39;0.90;;;0.80;;
39898;SDS011;25571;47.876;10.642;2024-03-23T09:36:05;1.52;;;1.02;;
39898;SDS011;25571;47.876;10.642;2024-03-23T09:38:31;1.02;;;0.70;;
39898;SDS011;25571;47.876;10.642;2024-03-23T09:40:57;3.45;;;1.02;;
39898;SDS011;25571;47.876;10.642;2024-03-23T09:43:24;0.50;;;0.50;;
39898;SDS011;25571;47.876;10.642;2024-03-23T09:45:50;0.73;;;0.73;;
39898;SDS011;25571;47.876;10.642;2024-03-23T09:48:16;1.33;;;0.80;;
39898;SDS011;25571;47.876;10.642;2024-03-23T09:50:43;1.65;;;0.93;;
39898;SDS011;25571;47.876;10.642;2024-03-23T09:53:11;1.60;;;1.50;;
39898;SDS011;25571;47.876;10.642;2024-03-23T09:55:39;0.90;;;0.80;;
39898;SDS011;25571;47.876;10.642;2024-03-23T09:58:06;1.02;;;0.82;;
39898;SDS011;25571;47.876;10.642;2024-03-23T10:00:32;2.33;;;1.30;;
39898;SDS011;25571;47.876;10.642;2024-03-23T10:02:58;1.33;;;0.88;;
39898;SDS011;25571;47.876;10.642;2024-03-23T10:05:27;1.63;;;0.70;;
39898;SDS011;25571;47.876;10.642;2024-03-23T10:07:54;0.60;;;0.60;;
39898;SDS011;25571;47.876;10.642;2024-03-23T10:10:19;0.90;;;0.60;;
39898;SDS011;25571;47.876;10.642;2024-03-23T10:12:47;1.05;;;0.88;;
39898;SDS011;25571;47.876;10.642;2024-03-23T10:15:34;0.77;;;0.70;;
39898;SDS011;25571;47.876;10.642;2024-03-23T10:18:17;1.15;;;0.80;;
39898;SDS011;25571;47.876;10.642;2024-03-23T10:20:46;0.55;;;0.55;;
39898;SDS011;25571;47.876;10.642;2024-03-23T10:23:16;1.27;;;0.80;;
39898;SDS011;25571;47.876;10.642;2024-03-23T10:25:42;0.57;;;0.57;;
39898;SDS011;25571;47.876;10.642;2024-03-23T10:28:08;0.50;;;0.50;;
39898;SDS011;25571;47.876;10.642;2024-03-23T10:30:34;0.75;;;0.50;;
39898;SDS011;25571;47.876;10.642;2024-03-23T10:33:10;0.80;;;0.77;;
39898;SDS011;25571;47.876;10.642;2024-03-23T10:35:38;0.90;;;0.70;;
39898;SDS011;25571;47.876;10.642;2024-03-23T10:38:05;1.20;;;0.80;;
39898;SDS011;25571;47.876;10.642;2024-03-23T10:40:34;0.88;;;0.60;;
39898;SDS011;25571;47.876;10.642;2024-03-23T10:43:00;0.50;;;0.50;;
39898;SDS011;25571;47.876;10.642;2024-03-23T10:45:28;0.80;;;0.75;;
39898;SDS011;25571;47.876;10.642;2024-03-23T10:47:54;0.77;;;0.68;;
39898;SDS011;25571;47.876;10.642;2024-03-23T10:50:19;1.25;;;0.70;;
39898;SDS011;25571;47.876;10.642;2024-03-23T10:52:46;0.60;;;0.60;;
39898;SDS011;25571;47.876;10.642;2024-03-23T10:55:13;1.23;;;0.82;;
39898;SDS011;25571;47.876;10.642;2024-03-23T10:58:00;2.15;;;1.58;;
39898;SDS011;25571;47.876;10.642;2024-03-23T11:00:26;2.00;;;1.58;;
39898;SDS011;25571;47.876;10.642;2024-03-23T11:02:51;3.95;;;2.35;;
39898;SDS011;25571;47.876;10.642;2024-03-23T11:07:49;2.83;;;1.30;;
39898;SDS011;25571;47.876;10.642;2024-03-23T11:10:31;2.17;;;1.23;;
39898;SDS011;25571;47.876;10.642;2024-03-23T11:15:47;1.95;;;1.27;;
39898;SDS011;25571;47.876;10.642;2024-03-23T11:18:12;1.65;;;1.13;;
39898;SDS011;25571;47.876;10.642;2024-03-23T11:20:46;1.50;;;1.20;;
39898;SDS011;25571;47.876;10.642;2024-03-23T11:23:26;1.77;;;1.25;;
39898;SDS011;25571;47.876;10.642;2024-03-23T11:25:52;2.90;;;1.10;;
39898;SDS011;25571;47.876;10.642;2024-03-23T11:28:18;2.58;;;1.23;;
39898;SDS011;25571;47.876;10.642;2024-03-23T11:30:44;1.80;;;0.90;;
39898;SDS011;25571;47.876;10.642;2024-03-23T11:33:09;2.88;;;1.25;;
39898;SDS011;25571;47.876;10.642;2024-03-23T11:35:37;1.17;;;1.08;;
39898;SDS011;25571;47.876;10.642;2024-03-23T11:38:14;1.20;;;0.95;;
39898;SDS011;25571;47.876;10.642;2024-03-23T11:40:45;1.20;;;0.90;;
39898;SDS011;25571;47.876;10.642;2024-03-23T11:43:14;1.70;;;0.85;;
39898;SDS011;25571;47.876;10.642;2024-03-23T11:50:43;1.02;;;0.70;;
39898;SDS011;25571;47.876;10.642;2024-03-23T11:53:14;1.42;;;0.80;;
39898;SDS011;25571;47.876;10.642;2024-03-23T11:58:11;1.08;;;0.90;;
39898;SDS011;25571;47.876;10.642;2024-03-23T12:00:37;2.05;;;0.90;;
39898;SDS011;25571;47.876;10.642;2024-03-23T12:03:03;2.35;;;0.90;;
39898;SDS011;25571;47.876;10.642;2024-03-23T12:05:29;2.33;;;1.00;;
39898;SDS011;25571;47.876;10.642;2024-03-23T12:08:14;2.33;;;1.25;;
39898;SDS011;25571;47.876;10.642;2024-03-23T12:10:43;3.22;;;1.35;;
39898;SDS011;25571;47.876;10.642;2024-03-23T12:13:11;1.25;;;1.10;;
39898;SDS011;25571;47.876;10.642;2024-03-23T12:15:36;3.95;;;1.70;;
39898;SDS011;25571;47.876;10.642;2024-03-23T12:18:08;3.92;;;1.60;;
39898;SDS011;25571;47.876;10.642;2024-03-23T12:20:35;3.50;;;1.73;;
39898;SDS011;25571;47.876;10.642;2024-03-23T12:23:21;2.25;;;1.40;;
39898;SDS011;25571;47.876;10.642;2024-03-23T12:25:48;3.65;;;1.45;;
39898;SDS011;25571;47.876;10.642;2024-03-23T12:28:14;2.65;;;1.70;;
39898;SDS011;25571;47.876;10.642;2024-03-23T12:30:39;1.60;;;1.27;;
39898;SDS011;25571;47.876;10.642;2024-03-23T12:33:05;4.60;;;1.20;;
39898;SDS011;25571;47.876;10.642;2024-03-23T12:35:31;3.20;;;1.50;;
39898;SDS011;25571;47.876;10.642;2024-03-23T12:37:57;2.65;;;1.48;;
39898;SDS011;25571;47.876;10.642;2024-03-23T12:40:22;1.83;;;1.20;;
39898;SDS011;25571;47.876;10.642;2024-03-23T12:42:48;1.75;;;1.35;;
39898;SDS011;25571;47.876;10.642;2024-03-23T12:45:14;3.63;;;2.25;;
39898;SDS011;25571;47.876;10.642;2024-03-23T12:47:39;2.13;;;1.48;;
39898;SDS011;25571;47.876;10.642;2024-03-23T12:50:05;2.58;;;1.30;;
39898;SDS011;25571;47.876;10.642;2024-03-23T12:52:32;2.55;;;1.38;;
39898;SDS011;25571;47.876;10.642;2024-03-23T12:54:58;4.45;;;1.77;;
39898;SDS011;25571;47.876;10.642;2024-03-23T12:57:24;3.22;;;1.40;;
39898;SDS011;25571;47.876;10.642;2024-03-23T12:59:53;3.03;;;1.58;;
39898;SDS011;25571;47.876;10.642;2024-03-23T13:02:19;2.35;;;1.38;;
39898;SDS011;25571;47.876;10.642;2024-03-23T13:04:52;2.67;;;1.27;;
39898;SDS011;25571;47.876;10.642;2024-03-23T13:07:18;1.77;;;1.30;;
39898;SDS011;25571;47.876;10.642;2024-03-23T13:09:45;2.00;;;1.20;;
39898;SDS011;25571;47.876;10.642;2024-03-23T13:12:11;2.47;;;1.58;;
39898;SDS011;25571;47.876;10.642;2024-03-23T13:14:37;1.63;;;0.85;;
39898;SDS011;25571;47.876;10.642;2024-03-23T13:17:03;2.15;;;1.30;;
39898;SDS011;25571;47.876;10.642;2024-03-23T13:19:29;2.50;;;1.23;;
39898;SDS011;25571;47.876;10.642;2024-03-23T13:21:59;2.58;;;1.08;;
39898;SDS011;25571;47.876;10.642;2024-03-23T13:24:25;3.10;;;1.27;;
39898;SDS011;25571;47.876;10.642;2024-03-23T13:26:52;3.05;;;1.15;;
39898;SDS011;25571;47.876;10.642;2024-03-23T13:29:19;2.40;;;1.45;;
39898;SDS011;25571;47.876;10.642;2024-03-23T13:31:45;2.17;;;1.30;;
39898;SDS011;25571;47.876;10.642;2024-03-23T13:34:12;2.67;;;1.17;;
39898;SDS011;25571;47.876;10.642;2024-03-23T13:36:40;4.63;;;1.40;;
39898;SDS011;25571;47.876;10.642;2024-03-23T13:39:09;3.90;;;1.45;;
39898;SDS011;25571;47.876;10.642;2024-03-23T13:41:39;4.35;;;1.77;;
39898;SDS011;25571;47.876;10.642;2024-03-23T13:44:05;2.83;;;1.17;;
39898;SDS011;25571;47.876;10.642;2024-03-23T13:46:32;3.63;;;2.13;;
39898;SDS011;25571;47.876;10.642;2024-03-23T13:48:58;2.85;;;1.38;;
39898;SDS011;25571;47.876;10.642;2024-03-23T13:51:24;6.45;;;1.80;;
39898;SDS011;25571;47.876;10.642;2024-03-23T13:53:52;4.60;;;1.95;;
39898;SDS011;25571;47.876;10.642;2024-03-23T13:56:29;18.20;;;6.65;;
39898;SDS011;25571;47.876;10.642;2024-03-23T13:58:58;39.17;;;13.43;;
39898;SDS011;25571;47.876;10.642;2024-03-23T14:01:23;43.80;;;14.98;;
39898;SDS011;25571;47.876;10.642;2024-03-23T14:03:49;38.33;;;16.75;;
39898;SDS011;25571;47.876;10.642;2024-03-23T14:06:15;43.92;;;15.65;;
39898;SDS011;25571;47.876;10.642;2024-03-23T14:08:41;23.05;;;16.13;;
39898;SDS011;25571;47.876;10.642;2024-03-23T14:11:07;45.85;;;34.50;;
39898;SDS011;25571;47.876;10.642;2024-03-23T14:13:36;16.42;;;13.10;;
39898;SDS011;25571;47.876;10.642;2024-03-23T14:16:02;6.88;;;5.20;;
39898;SDS011;25571;47.876;10.642;2024-03-23T14:18:28;3.13;;;1.88;;
39898;SDS011;25571;47.876;10.642;2024-03-23T14:20:57;7.70;;;3.70;;
39898;SDS011;25571;47.876;10.642;2024-03-23T14:23:25;35.78;;;13.13;;
39898;SDS011;25571;47.876;10.642;2024-03-23T14:26:00;17.23;;;7.18;;
39898;SDS011;25571;47.876;10.642;2024-03-23T14:28:25;35.33;;;13.02;;
39898;SDS011;25571;47.876;10.642;2024-03-23T14:30:51;31.67;;;12.32;;
39898;SDS011;25571;47.876;10.642;2024-03-23T14:33:20;85.22;;;26.90;;
39898;SDS011;25571;47.876;10.642;2024-03-23T14:35:52;34.88;;;13.77;;
39898;SDS011;25571;47.876;10.642;2024-03-23T14:38:18;13.18;;;4.97;;
39898;SDS011;25571;47.876;10.642;2024-03-23T14:40:45;6.35;;;3.65;;
39898;SDS011;25571;47.876;10.642;2024-03-23T14:43:11;93.70;;;24.55;;
39898;SDS011;25571;47.876;10.642;2024-03-23T14:45:37;81.28;;;22.13;;
39898;SDS011;25571;47.876;10.642;2024-03-23T14:48:02;25.08;;;8.82;;
39898;SDS011;25571;47.876;10.642;2024-03-23T14:50:28;6.15;;;3.03;;
39898;SDS011;25571;47.876;10.642;2024-03-23T14:52:54;3.47;;;2.30;;
39898;SDS011;25571;47.876;10.642;2024-03-23T14:55:19;4.43;;;2.20;;
39898;SDS011;25571;47.876;10.642;2024-03-23T14:57:45;4.43;;;2.22;;
39898;SDS011;25571;47.876;10.642;2024-03-23T15:00:11;12.70;;;4.95;;
39898;SDS011;25571;47.876;10.642;2024-03-23T15:02:37;10.30;;;4.78;;
39898;SDS011;25571;47.876;10.642;2024-03-23T15:05:03;4.78;;;2.55;;
39898;SDS011;25571;47.876;10.642;2024-03-23T15:07:32;4.53;;;3.30;;
39898;SDS011;25571;47.876;10.642;2024-03-23T15:09:58;5.38;;;3.03;;
39898;SDS011;25571;47.876;10.642;2024-03-23T15:12:23;2.88;;;2.00;;
39898;SDS011;25571;47.876;10.642;2024-03-23T15:14:49;4.93;;;2.10;;
39898;SDS011;25571;47.876;10.642;2024-03-23T15:17:15;5.95;;;2.80;;
39898;SDS011;25571;47.876;10.642;2024-03-23T15:19:41;3.05;;;1.90;;
39898;SDS011;25571;47.876;10.642;2024-03-23T15:22:07;2.22;;;1.65;;
39898;SDS011;25571;47.876;10.642;2024-03-23T15:24:36;4.70;;;2.22;;
39898;SDS011;25571;47.876;10.642;2024-03-23T15:27:04;4.15;;;1.70;;
39898;SDS011;25571;47.876;10.642;2024-03-23T15:29:33;4.05;;;1.83;;
39898;SDS011;25571;47.876;10.642;2024-03-23T15:31:59;4.05;;;1.60;;
39898;SDS011;25571;47.876;10.642;2024-03-23T15:34:25;1.95;;;1.65;;
39898;SDS011;25571;47.876;10.642;2024-03-23T15:36:50;5.82;;;3.22;;
39898;SDS011;25571;47.876;10.642;2024-03-23T15:39:17;3.50;;;2.60;;